sensor_id;sensor_type;location;lat;lon;timestamp;P1;durP1;ratioP1;P2;durP2;ratioP2
15899;SDS011;8048;50.644;6.184;2023-03-14T00:02:09;3.30;;;2.40;;
15899;SDS011;8048;50.644;6.184;2023-03-14T00:04:35;4.57;;;2.50;;
15899;SDS011;8048;50.644;6.184;2023-03-14T00:07:01;2.23;;;1.67;;
15899;SDS011;8048;50.644;6.184;2023-03-14T00:09:27;3.90;;;1.97;;
15899;SDS011;8048;50.644;6.184;2023-03-14T00:11:54;4.00;;;2.60;;
15899;SDS011;8048;50.644;6.184;2023-03-14T00:14:20;2.90;;;2.70;;
15899;SDS011;8048;50.644;6.184;2023-03-14T00:16:46;7.83;;;2.37;;
15899;SDS011;8048;50.644;6.184;2023-03-14T00:19:12;2.30;;;2.00;;
15899;SDS011;8048;50.644;6.184;2023-03-14T00:21:37;2.40;;;1.87;;
15899;SDS011;8048;50.644;6.184;2023-03-14T00:24:03;2.20;;;1.60;;
15899;SDS011;8048;50.644;6.184;2023-03-14T00:26:28;3.83;;;2.10;;
15899;SDS011;8048;50.644;6.184;2023-03-14T00:28:54;4.60;;;2.27;;
15899;SDS011;8048;50.644;6.184;2023-03-14T00:31:20;10.13;;;2.80;;
15899;SDS011;8048;50.644;6.184;2023-03-14T00:33:46;3.87;;;2.07;;
15899;SDS011;8048;50.644;6.184;2023-03-14T00:36:13;4.60;;;2.60;;
15899;SDS011;8048;50.644;6.184;2023-03-14T00:38:41;2.20;;;1.70;;
15899;SDS011;8048;50.644;6.184;2023-03-14T00:41:09;1.67;;;1.50;;
15899;SDS011;8048;50.644;6.184;2023-03-14T00:43:36;1.17;;;1.17;;
15899;SDS011;8048;50.644;6.184;2023-03-14T00:46:02;3.40;;;2.00;;
15899;SDS011;8048;50.644;6.184;2023-03-14T00:48:28;2.27;;;1.60;;
15899;SDS011;8048;50.644;6.184;2023-03-14T00:50:54;1.67;;;1.67;;
15899;SDS011;8048;50.644;6.184;2023-03-14T00:53:20;2.40;;;1.30;;
15899;SDS011;8048;50.644;6.184;2023-03-14T00:55:45;1.43;;;1.43;;
15899;SDS011;8048;50.644;6.184;2023-03-14T00:58:12;1.20;;;1.20;;
15899;SDS011;8048;50.644;6.184;2023-03-14T01:00:39;3.50;;;2.60;;
15899;SDS011;8048;50.644;6.184;2023-03-14T01:03:05;1.60;;;1.50;;
15899;SDS011;8048;50.644;6.184;2023-03-14T01:05:31;1.67;;;1.37;;
15899;SDS011;8048;50.644;6.184;2023-03-14T01:07:57;1.80;;;1.70;;
15899;SDS011;8048;50.644;6.184;2023-03-14T01:10:23;1.83;;;1.73;;
15899;SDS011;8048;50.644;6.184;2023-03-14T01:12:49;1.43;;;1.43;;
15899;SDS011;8048;50.644;6.184;2023-03-14T01:15:14;1.73;;;1.50;;
15899;SDS011;8048;50.644;6.184;2023-03-14T01:17:40;3.90;;;1.43;;
15899;SDS011;8048;50.644;6.184;2023-03-14T01:20:07;5.53;;;2.23;;
15899;SDS011;8048;50.644;6.184;2023-03-14T01:22:35;1.27;;;1.20;;
15899;SDS011;8048;50.644;6.184;2023-03-14T01:25:03;1.90;;;1.70;;
15899;SDS011;8048;50.644;6.184;2023-03-14T01:27:29;1.73;;;1.63;;
15899;SDS011;8048;50.644;6.184;2023-03-14T01:29:55;2.93;;;1.60;;
15899;SDS011;8048;50.644;6.184;2023-03-14T01:32:20;3.17;;;2.00;;
15899;SDS011;8048;50.644;6.184;2023-03-14T01:34:46;3.63;;;1.87;;
15899;SDS011;8048;50.644;6.184;2023-03-14T01:37:11;1.83;;;1.73;;
15899;SDS011;8048;50.644;6.184;2023-03-14T01:39:37;2.53;;;1.60;;
15899;SDS011;8048;50.644;6.184;2023-03-14T01:42:03;6.13;;;2.37;;
15899;SDS011;8048;50.644;6.184;2023-03-14T01:44:46;2.50;;;1.70;;
15899;SDS011;8048;50.644;6.184;2023-03-14T01:47:12;2.73;;;2.37;;
15899;SDS011;8048;50.644;6.184;2023-03-14T01:49:38;2.97;;;2.43;;
15899;SDS011;8048;50.644;6.184;2023-03-14T01:52:10;2.40;;;1.97;;
15899;SDS011;8048;50.644;6.184;2023-03-14T01:54:45;2.87;;;2.60;;
15899;SDS011;8048;50.644;6.184;2023-03-14T01:57:19;7.47;;;2.70;;
15899;SDS011;8048;50.644;6.184;2023-03-14T02:02:22;7.90;;;2.53;;
15899;SDS011;8048;50.644;6.184;2023-03-14T02:04:51;12.60;;;2.67;;
15899;SDS011;8048;50.644;6.184;2023-03-14T02:07:19;5.20;;;2.70;;
15899;SDS011;8048;50.644;6.184;2023-03-14T02:09:55;1.97;;;1.87;;
15899;SDS011;8048;50.644;6.184;2023-03-14T02:12:22;3.83;;;1.90;;
15899;SDS011;8048;50.644;6.184;2023-03-14T02:14:48;6.30;;;2.63;;
15899;SDS011;8048;50.644;6.184;2023-03-14T02:17:14;5.33;;;1.97;;
15899;SDS011;8048;50.644;6.184;2023-03-14T02:22:32;7.23;;;2.87;;
15899;SDS011;8048;50.644;6.184;2023-03-14T02:25:04;8.70;;;2.60;;
15899;SDS011;8048;50.644;6.184;2023-03-14T02:27:36;7.77;;;3.67;;
15899;SDS011;8048;50.644;6.184;2023-03-14T02:30:06;2.83;;;2.20;;
15899;SDS011;8048;50.644;6.184;2023-03-14T02:32:39;4.60;;;2.17;;
15899;SDS011;8048;50.644;6.184;2023-03-14T02:35:09;10.33;;;3.03;;
15899;SDS011;8048;50.644;6.184;2023-03-14T02:37:41;3.80;;;2.90;;
15899;SDS011;8048;50.644;6.184;2023-03-14T02:40:28;2.23;;;2.10;;
15899;SDS011;8048;50.644;6.184;2023-03-14T02:42:53;4.30;;;2.47;;
15899;SDS011;8048;50.644;6.184;2023-03-14T02:47:54;5.23;;;2.60;;
15899;SDS011;8048;50.644;6.184;2023-03-14T02:50:25;5.30;;;2.40;;
15899;SDS011;8048;50.644;6.184;2023-03-14T02:52:54;11.20;;;3.60;;
15899;SDS011;8048;50.644;6.184;2023-03-14T02:55:20;2.73;;;2.00;;
15899;SDS011;8048;50.644;6.184;2023-03-14T02:57:46;1.97;;;1.87;;
15899;SDS011;8048;50.644;6.184;2023-03-14T03:00:12;1.80;;;1.70;;
15899;SDS011;8048;50.644;6.184;2023-03-14T03:02:38;3.03;;;1.87;;
15899;SDS011;8048;50.644;6.184;2023-03-14T03:05:03;2.60;;;2.27;;
15899;SDS011;8048;50.644;6.184;2023-03-14T03:07:30;2.20;;;2.00;;
15899;SDS011;8048;50.644;6.184;2023-03-14T03:09:55;2.00;;;1.90;;
15899;SDS011;8048;50.644;6.184;2023-03-14T03:12:21;2.40;;;2.03;;
15899;SDS011;8048;50.644;6.184;2023-03-14T03:14:46;1.40;;;1.40;;
15899;SDS011;8048;50.644;6.184;2023-03-14T03:17:12;1.43;;;1.43;;
15899;SDS011;8048;50.644;6.184;2023-03-14T03:19:37;2.97;;;1.80;;
15899;SDS011;8048;50.644;6.184;2023-03-14T03:22:03;1.50;;;1.40;;
15899;SDS011;8048;50.644;6.184;2023-03-14T03:24:28;3.17;;;2.03;;
15899;SDS011;8048;50.644;6.184;2023-03-14T03:26:54;3.17;;;1.60;;
15899;SDS011;8048;50.644;6.184;2023-03-14T03:29:20;1.63;;;1.63;;
15899;SDS011;8048;50.644;6.184;2023-03-14T03:31:45;1.43;;;1.43;;
15899;SDS011;8048;50.644;6.184;2023-03-14T03:34:11;1.90;;;1.80;;
15899;SDS011;8048;50.644;6.184;2023-03-14T03:36:38;1.80;;;1.70;;
15899;SDS011;8048;50.644;6.184;2023-03-14T03:39:03;1.63;;;1.63;;
15899;SDS011;8048;50.644;6.184;2023-03-14T03:41:29;1.50;;;1.50;;
15899;SDS011;8048;50.644;6.184;2023-03-14T03:43:55;1.30;;;1.30;;
15899;SDS011;8048;50.644;6.184;2023-03-14T03:46:21;1.20;;;1.20;;
15899;SDS011;8048;50.644;6.184;2023-03-14T03:48:46;1.77;;;1.67;;
15899;SDS011;8048;50.644;6.184;2023-03-14T03:51:13;2.00;;;1.57;;
15899;SDS011;8048;50.644;6.184;2023-03-14T03:53:39;1.40;;;1.40;;
15899;SDS011;8048;50.644;6.184;2023-03-14T03:56:06;2.93;;;1.50;;
15899;SDS011;8048;50.644;6.184;2023-03-14T03:58:31;1.40;;;1.40;;
15899;SDS011;8048;50.644;6.184;2023-03-14T04:00:57;1.27;;;1.27;;
15899;SDS011;8048;50.644;6.184;2023-03-14T04:03:22;1.30;;;1.30;;
15899;SDS011;8048;50.644;6.184;2023-03-14T04:05:58;1.20;;;1.20;;
15899;SDS011;8048;50.644;6.184;2023-03-14T04:08:25;1.00;;;1.00;;
15899;SDS011;8048;50.644;6.184;2023-03-14T04:10:53;1.20;;;1.20;;
15899;SDS011;8048;50.644;6.184;2023-03-14T04:13:21;1.83;;;1.60;;
15899;SDS011;8048;50.644;6.184;2023-03-14T04:15:46;1.20;;;1.20;;
15899;SDS011;8048;50.644;6.184;2023-03-14T04:18:12;1.40;;;1.40;;
15899;SDS011;8048;50.644;6.184;2023-03-14T04:20:37;5.93;;;1.40;;
15899;SDS011;8048;50.644;6.184;2023-03-14T04:23:03;1.10;;;1.10;;
15899;SDS011;8048;50.644;6.184;2023-03-14T04:25:28;1.13;;;1.13;;
15899;SDS011;8048;50.644;6.184;2023-03-14T04:27:54;1.10;;;1.10;;
15899;SDS011;8048;50.644;6.184;2023-03-14T04:30:19;1.10;;;1.10;;
15899;SDS011;8048;50.644;6.184;2023-03-14T04:32:45;1.00;;;1.00;;
15899;SDS011;8048;50.644;6.184;2023-03-14T04:35:10;1.10;;;1.10;;
15899;SDS011;8048;50.644;6.184;2023-03-14T04:37:36;1.10;;;1.10;;
15899;SDS011;8048;50.644;6.184;2023-03-14T04:40:01;1.47;;;1.37;;
15899;SDS011;8048;50.644;6.184;2023-03-14T04:42:31;1.30;;;1.30;;
15899;SDS011;8048;50.644;6.184;2023-03-14T04:44:56;1.30;;;1.30;;
15899;SDS011;8048;50.644;6.184;2023-03-14T04:47:22;1.03;;;1.03;;
15899;SDS011;8048;50.644;6.184;2023-03-14T04:49:47;1.17;;;1.17;;
15899;SDS011;8048;50.644;6.184;2023-03-14T04:52:13;1.30;;;1.30;;
15899;SDS011;8048;50.644;6.184;2023-03-14T04:54:38;1.20;;;1.20;;
15899;SDS011;8048;50.644;6.184;2023-03-14T04:57:04;1.20;;;1.20;;
15899;SDS011;8048;50.644;6.184;2023-03-14T04:59:29;1.20;;;1.20;;
15899;SDS011;8048;50.644;6.184;2023-03-14T05:01:55;1.23;;;1.23;;
15899;SDS011;8048;50.644;6.184;2023-03-14T05:04:20;1.40;;;1.40;;
15899;SDS011;8048;50.644;6.184;2023-03-14T05:06:46;1.20;;;1.20;;
15899;SDS011;8048;50.644;6.184;2023-03-14T05:09:11;1.57;;;1.30;;
15899;SDS011;8048;50.644;6.184;2023-03-14T05:11:37;1.13;;;1.13;;
15899;SDS011;8048;50.644;6.184;2023-03-14T05:14:02;1.10;;;1.10;;
15899;SDS011;8048;50.644;6.184;2023-03-14T05:16:28;1.23;;;1.23;;
15899;SDS011;8048;50.644;6.184;2023-03-14T05:18:53;1.20;;;1.20;;
15899;SDS011;8048;50.644;6.184;2023-03-14T05:21:19;1.00;;;1.00;;
15899;SDS011;8048;50.644;6.184;2023-03-14T05:23:44;1.10;;;1.10;;
15899;SDS011;8048;50.644;6.184;2023-03-14T05:26:10;2.30;;;1.40;;
15899;SDS011;8048;50.644;6.184;2023-03-14T05:28:35;1.10;;;1.10;;
15899;SDS011;8048;50.644;6.184;2023-03-14T05:31:05;1.20;;;1.20;;
15899;SDS011;8048;50.644;6.184;2023-03-14T05:33:31;1.10;;;1.10;;
15899;SDS011;8048;50.644;6.184;2023-03-14T05:35:57;1.20;;;1.20;;
15899;SDS011;8048;50.644;6.184;2023-03-14T05:38:22;2.80;;;2.33;;
15899;SDS011;8048;50.644;6.184;2023-03-14T05:40:48;1.30;;;1.30;;
15899;SDS011;8048;50.644;6.184;2023-03-14T05:43:13;1.03;;;1.03;;
15899;SDS011;8048;50.644;6.184;2023-03-14T05:45:40;1.40;;;1.40;;
15899;SDS011;8048;50.644;6.184;2023-03-14T05:48:06;1.23;;;1.23;;
15899;SDS011;8048;50.644;6.184;2023-03-14T05:50:32;1.30;;;1.30;;
15899;SDS011;8048;50.644;6.184;2023-03-14T05:52:57;1.30;;;1.30;;
15899;SDS011;8048;50.644;6.184;2023-03-14T05:55:23;1.30;;;1.30;;
15899;SDS011;8048;50.644;6.184;2023-03-14T05:57:48;1.30;;;1.30;;
15899;SDS011;8048;50.644;6.184;2023-03-14T06:00:14;1.10;;;1.10;;
15899;SDS011;8048;50.644;6.184;2023-03-14T06:02:40;1.40;;;1.40;;
15899;SDS011;8048;50.644;6.184;2023-03-14T06:05:06;1.30;;;1.30;;
15899;SDS011;8048;50.644;6.184;2023-03-14T06:07:32;1.33;;;1.33;;
15899;SDS011;8048;50.644;6.184;2023-03-14T06:09:58;1.50;;;1.50;;
15899;SDS011;8048;50.644;6.184;2023-03-14T06:12:23;1.40;;;1.40;;
15899;SDS011;8048;50.644;6.184;2023-03-14T06:14:49;1.50;;;1.50;;
15899;SDS011;8048;50.644;6.184;2023-03-14T06:17:15;1.73;;;1.73;;
15899;SDS011;8048;50.644;6.184;2023-03-14T06:19:40;1.47;;;1.47;;
15899;SDS011;8048;50.644;6.184;2023-03-14T06:22:06;1.57;;;1.57;;
15899;SDS011;8048;50.644;6.184;2023-03-14T06:24:31;1.43;;;1.43;;
15899;SDS011;8048;50.644;6.184;2023-03-14T06:26:57;1.60;;;1.60;;
15899;SDS011;8048;50.644;6.184;2023-03-14T06:29:22;1.40;;;1.40;;
15899;SDS011;8048;50.644;6.184;2023-03-14T06:31:48;1.90;;;1.80;;
15899;SDS011;8048;50.644;6.184;2023-03-14T06:34:13;1.50;;;1.50;;
15899;SDS011;8048;50.644;6.184;2023-03-14T06:36:39;1.50;;;1.50;;
15899;SDS011;8048;50.644;6.184;2023-03-14T06:39:04;1.60;;;1.60;;
15899;SDS011;8048;50.644;6.184;2023-03-14T06:41:30;1.47;;;1.47;;
15899;SDS011;8048;50.644;6.184;2023-03-14T06:43:56;1.50;;;1.50;;
15899;SDS011;8048;50.644;6.184;2023-03-14T06:46:21;1.67;;;1.67;;
15899;SDS011;8048;50.644;6.184;2023-03-14T06:48:47;1.60;;;1.60;;
15899;SDS011;8048;50.644;6.184;2023-03-14T06:51:12;1.60;;;1.60;;
15899;SDS011;8048;50.644;6.184;2023-03-14T06:53:38;1.53;;;1.53;;
15899;SDS011;8048;50.644;6.184;2023-03-14T06:56:03;1.30;;;1.30;;
15899;SDS011;8048;50.644;6.184;2023-03-14T06:58:29;1.20;;;1.20;;
15899;SDS011;8048;50.644;6.184;2023-03-14T07:00:55;1.27;;;1.27;;
15899;SDS011;8048;50.644;6.184;2023-03-14T07:03:22;1.57;;;1.57;;
15899;SDS011;8048;50.644;6.184;2023-03-14T07:05:47;1.57;;;1.57;;
15899;SDS011;8048;50.644;6.184;2023-03-14T07:08:13;1.60;;;1.60;;
15899;SDS011;8048;50.644;6.184;2023-03-14T07:10:39;1.20;;;1.20;;
15899;SDS011;8048;50.644;6.184;2023-03-14T07:13:04;1.60;;;1.60;;
15899;SDS011;8048;50.644;6.184;2023-03-14T07:15:30;1.50;;;1.50;;
15899;SDS011;8048;50.644;6.184;2023-03-14T07:17:55;1.60;;;1.50;;
15899;SDS011;8048;50.644;6.184;2023-03-14T07:20:21;1.63;;;1.63;;
15899;SDS011;8048;50.644;6.184;2023-03-14T07:22:47;1.43;;;1.43;;
15899;SDS011;8048;50.644;6.184;2023-03-14T07:25:14;1.40;;;1.40;;
15899;SDS011;8048;50.644;6.184;2023-03-14T07:27:40;1.57;;;1.57;;
15899;SDS011;8048;50.644;6.184;2023-03-14T07:30:07;1.50;;;1.50;;
15899;SDS011;8048;50.644;6.184;2023-03-14T07:32:33;1.87;;;1.77;;
15899;SDS011;8048;50.644;6.184;2023-03-14T07:34:59;2.00;;;1.67;;
15899;SDS011;8048;50.644;6.184;2023-03-14T07:37:24;1.83;;;1.83;;
15899;SDS011;8048;50.644;6.184;2023-03-14T07:39:50;1.80;;;1.80;;
15899;SDS011;8048;50.644;6.184;2023-03-14T07:42:15;1.87;;;1.87;;
15899;SDS011;8048;50.644;6.184;2023-03-14T07:44:41;2.30;;;2.00;;
15899;SDS011;8048;50.644;6.184;2023-03-14T07:47:06;2.10;;;2.00;;
15899;SDS011;8048;50.644;6.184;2023-03-14T07:49:32;2.27;;;2.23;;
15899;SDS011;8048;50.644;6.184;2023-03-14T07:51:57;1.90;;;1.90;;
15899;SDS011;8048;50.644;6.184;2023-03-14T07:54:24;1.70;;;1.70;;
15899;SDS011;8048;50.644;6.184;2023-03-14T07:56:49;1.40;;;1.40;;
15899;SDS011;8048;50.644;6.184;2023-03-14T07:59:16;1.80;;;1.70;;
15899;SDS011;8048;50.644;6.184;2023-03-14T08:01:42;2.60;;;1.80;;
15899;SDS011;8048;50.644;6.184;2023-03-14T08:04:08;2.00;;;2.00;;
15899;SDS011;8048;50.644;6.184;2023-03-14T08:06:34;2.00;;;1.90;;
15899;SDS011;8048;50.644;6.184;2023-03-14T08:09:01;2.10;;;2.00;;
15899;SDS011;8048;50.644;6.184;2023-03-14T08:11:27;1.77;;;1.67;;
15899;SDS011;8048;50.644;6.184;2023-03-14T08:13:53;2.17;;;2.07;;
15899;SDS011;8048;50.644;6.184;2023-03-14T08:16:19;1.70;;;1.70;;
15899;SDS011;8048;50.644;6.184;2023-03-14T08:18:44;6.13;;;1.60;;
15899;SDS011;8048;50.644;6.184;2023-03-14T08:21:10;1.67;;;1.67;;
15899;SDS011;8048;50.644;6.184;2023-03-14T08:23:37;1.50;;;1.50;;
15899;SDS011;8048;50.644;6.184;2023-03-14T08:26:02;1.60;;;1.60;;
15899;SDS011;8048;50.644;6.184;2023-03-14T08:28:28;2.70;;;2.60;;
15899;SDS011;8048;50.644;6.184;2023-03-14T08:30:56;1.60;;;1.60;;
15899;SDS011;8048;50.644;6.184;2023-03-14T08:33:22;1.50;;;1.40;;
15899;SDS011;8048;50.644;6.184;2023-03-14T08:35:48;1.50;;;1.50;;
15899;SDS011;8048;50.644;6.184;2023-03-14T08:38:16;1.70;;;1.70;;
15899;SDS011;8048;50.644;6.184;2023-03-14T08:40:41;1.50;;;1.50;;
15899;SDS011;8048;50.644;6.184;2023-03-14T08:43:07;1.40;;;1.40;;
15899;SDS011;8048;50.644;6.184;2023-03-14T08:45:32;1.90;;;1.90;;
15899;SDS011;8048;50.644;6.184;2023-03-14T08:47:58;1.70;;;1.70;;
15899;SDS011;8048;50.644;6.184;2023-03-14T08:50:23;1.60;;;1.50;;
15899;SDS011;8048;50.644;6.184;2023-03-14T08:52:49;2.03;;;1.93;;
15899;SDS011;8048;50.644;6.184;2023-03-14T08:55:15;1.70;;;1.60;;
15899;SDS011;8048;50.644;6.184;2023-03-14T08:57:41;1.70;;;1.60;;
15899;SDS011;8048;50.644;6.184;2023-03-14T09:00:07;1.57;;;1.50;;
15899;SDS011;8048;50.644;6.184;2023-03-14T09:02:36;1.20;;;1.20;;
15899;SDS011;8048;50.644;6.184;2023-03-14T09:05:02;3.47;;;1.80;;
15899;SDS011;8048;50.644;6.184;2023-03-14T09:07:28;1.73;;;1.73;;
15899;SDS011;8048;50.644;6.184;2023-03-14T09:09:53;2.10;;;2.00;;
15899;SDS011;8048;50.644;6.184;2023-03-14T09:12:19;1.97;;;1.87;;
15899;SDS011;8048;50.644;6.184;2023-03-14T09:14:44;2.77;;;2.63;;
15899;SDS011;8048;50.644;6.184;2023-03-14T09:17:10;3.70;;;3.40;;
15899;SDS011;8048;50.644;6.184;2023-03-14T09:19:36;2.47;;;2.37;;
15899;SDS011;8048;50.644;6.184;2023-03-14T09:22:01;2.00;;;1.90;;
15899;SDS011;8048;50.644;6.184;2023-03-14T09:24:27;1.80;;;1.70;;
15899;SDS011;8048;50.644;6.184;2023-03-14T09:26:54;1.80;;;1.80;;
15899;SDS011;8048;50.644;6.184;2023-03-14T09:29:20;12.73;;;9.20;;
15899;SDS011;8048;50.644;6.184;2023-03-14T09:31:46;15.37;;;11.00;;
15899;SDS011;8048;50.644;6.184;2023-03-14T09:34:11;2.10;;;2.00;;
15899;SDS011;8048;50.644;6.184;2023-03-14T09:36:37;1.60;;;1.60;;
15899;SDS011;8048;50.644;6.184;2023-03-14T09:39:04;2.10;;;2.00;;
15899;SDS011;8048;50.644;6.184;2023-03-14T09:44:05;1.90;;;1.90;;
15899;SDS011;8048;50.644;6.184;2023-03-14T09:46:34;2.97;;;2.87;;
15899;SDS011;8048;50.644;6.184;2023-03-14T09:49:02;4.23;;;2.10;;
15899;SDS011;8048;50.644;6.184;2023-03-14T09:51:30;2.27;;;2.17;;
15899;SDS011;8048;50.644;6.184;2023-03-14T09:53:56;2.37;;;2.27;;
15899;SDS011;8048;50.644;6.184;2023-03-14T09:56:26;2.60;;;2.40;;
15899;SDS011;8048;50.644;6.184;2023-03-14T09:58:55;2.87;;;2.67;;
15899;SDS011;8048;50.644;6.184;2023-03-14T10:01:27;2.50;;;2.30;;
15899;SDS011;8048;50.644;6.184;2023-03-14T10:03:55;1.93;;;1.80;;
15899;SDS011;8048;50.644;6.184;2023-03-14T10:06:24;2.27;;;2.17;;
15899;SDS011;8048;50.644;6.184;2023-03-14T10:08:52;2.60;;;2.50;;
15899;SDS011;8048;50.644;6.184;2023-03-14T10:11:20;3.00;;;2.80;;
15899;SDS011;8048;50.644;6.184;2023-03-14T10:16:53;3.07;;;2.37;;
15899;SDS011;8048;50.644;6.184;2023-03-14T10:19:18;2.77;;;2.57;;
15899;SDS011;8048;50.644;6.184;2023-03-14T10:21:44;3.30;;;3.10;;
15899;SDS011;8048;50.644;6.184;2023-03-14T10:24:20;3.63;;;3.37;;
15899;SDS011;8048;50.644;6.184;2023-03-14T10:26:54;3.20;;;3.00;;
15899;SDS011;8048;50.644;6.184;2023-03-14T10:29:23;7.63;;;6.90;;
15899;SDS011;8048;50.644;6.184;2023-03-14T10:34:27;3.00;;;2.80;;
15899;SDS011;8048;50.644;6.184;2023-03-14T10:36:59;2.37;;;2.27;;
15899;SDS011;8048;50.644;6.184;2023-03-14T10:39:51;2.27;;;2.17;;
15899;SDS011;8048;50.644;6.184;2023-03-14T10:44:46;2.43;;;2.33;;
15899;SDS011;8048;50.644;6.184;2023-03-14T10:47:19;2.80;;;2.70;;
15899;SDS011;8048;50.644;6.184;2023-03-14T10:49:48;3.23;;;2.03;;
15899;SDS011;8048;50.644;6.184;2023-03-14T10:54:39;2.60;;;2.50;;
15899;SDS011;8048;50.644;6.184;2023-03-14T10:57:05;2.90;;;2.80;;
15899;SDS011;8048;50.644;6.184;2023-03-14T10:59:35;2.47;;;2.37;;
15899;SDS011;8048;50.644;6.184;2023-03-14T11:10:24;2.57;;;2.47;;
15899;SDS011;8048;50.644;6.184;2023-03-14T11:13:02;2.40;;;2.30;;
15899;SDS011;8048;50.644;6.184;2023-03-14T11:18:43;3.33;;;3.13;;
15899;SDS011;8048;50.644;6.184;2023-03-14T11:21:13;4.03;;;3.77;;
15899;SDS011;8048;50.644;6.184;2023-03-14T11:26:53;2.90;;;2.80;;
15899;SDS011;8048;50.644;6.184;2023-03-14T11:32:19;3.87;;;2.70;;
15899;SDS011;8048;50.644;6.184;2023-03-14T11:35:03;2.57;;;2.40;;
15899;SDS011;8048;50.644;6.184;2023-03-14T11:37:34;2.43;;;2.33;;
15899;SDS011;8048;50.644;6.184;2023-03-14T11:40:11;2.93;;;2.73;;
15899;SDS011;8048;50.644;6.184;2023-03-14T11:42:58;2.50;;;2.20;;
15899;SDS011;8048;50.644;6.184;2023-03-14T11:45:44;2.57;;;2.47;;
15899;SDS011;8048;50.644;6.184;2023-03-14T11:51:13;2.10;;;2.00;;
15899;SDS011;8048;50.644;6.184;2023-03-14T11:53:57;1.80;;;1.80;;
15899;SDS011;8048;50.644;6.184;2023-03-14T11:56:37;1.60;;;1.50;;
15899;SDS011;8048;50.644;6.184;2023-03-14T11:59:15;1.80;;;1.80;;
15899;SDS011;8048;50.644;6.184;2023-03-14T12:02:05;1.60;;;1.60;;
15899;SDS011;8048;50.644;6.184;2023-03-14T12:07:25;1.80;;;1.70;;
15899;SDS011;8048;50.644;6.184;2023-03-14T12:09:57;1.60;;;1.60;;
15899;SDS011;8048;50.644;6.184;2023-03-14T12:12:24;1.40;;;1.40;;
15899;SDS011;8048;50.644;6.184;2023-03-14T12:14:59;1.40;;;1.40;;
15899;SDS011;8048;50.644;6.184;2023-03-14T12:20:06;1.43;;;1.43;;
15899;SDS011;8048;50.644;6.184;2023-03-14T12:27:44;1.40;;;1.40;;
15899;SDS011;8048;50.644;6.184;2023-03-14T12:30:53;1.43;;;1.43;;
15899;SDS011;8048;50.644;6.184;2023-03-14T12:38:06;1.87;;;1.77;;
15899;SDS011;8048;50.644;6.184;2023-03-14T12:43:38;1.63;;;1.63;;
15899;SDS011;8048;50.644;6.184;2023-03-14T12:51:19;2.03;;;1.93;;
15899;SDS011;8048;50.644;6.184;2023-03-14T12:53:58;2.10;;;2.00;;
15899;SDS011;8048;50.644;6.184;2023-03-14T12:56:38;1.43;;;1.30;;
15899;SDS011;8048;50.644;6.184;2023-03-14T12:59:14;1.50;;;1.40;;
15899;SDS011;8048;50.644;6.184;2023-03-14T13:01:54;1.63;;;1.53;;
15899;SDS011;8048;50.644;6.184;2023-03-14T13:04:34;1.40;;;1.30;;
15899;SDS011;8048;50.644;6.184;2023-03-14T13:07:02;1.47;;;1.47;;
15899;SDS011;8048;50.644;6.184;2023-03-14T13:11:54;2.33;;;2.13;;
15899;SDS011;8048;50.644;6.184;2023-03-14T13:14:22;5.40;;;2.53;;
15899;SDS011;8048;50.644;6.184;2023-03-14T13:16:48;1.50;;;1.40;;
15899;SDS011;8048;50.644;6.184;2023-03-14T13:19:18;1.30;;;1.20;;
15899;SDS011;8048;50.644;6.184;2023-03-14T13:21:48;1.70;;;1.60;;
15899;SDS011;8048;50.644;6.184;2023-03-14T13:24:22;1.07;;;1.07;;
15899;SDS011;8048;50.644;6.184;2023-03-14T13:26:49;1.37;;;1.37;;
15899;SDS011;8048;50.644;6.184;2023-03-14T13:29:19;1.20;;;1.20;;
15899;SDS011;8048;50.644;6.184;2023-03-14T13:31:46;1.10;;;1.10;;
15899;SDS011;8048;50.644;6.184;2023-03-14T13:34:13;1.40;;;1.40;;
15899;SDS011;8048;50.644;6.184;2023-03-14T13:36:39;1.43;;;1.43;;
15899;SDS011;8048;50.644;6.184;2023-03-14T13:39:13;3.27;;;3.07;;
15899;SDS011;8048;50.644;6.184;2023-03-14T13:41:42;1.90;;;1.63;;
15899;SDS011;8048;50.644;6.184;2023-03-14T13:44:12;2.30;;;2.07;;
15899;SDS011;8048;50.644;6.184;2023-03-14T13:46:41;2.23;;;2.13;;
15899;SDS011;8048;50.644;6.184;2023-03-14T13:49:09;1.90;;;1.90;;
15899;SDS011;8048;50.644;6.184;2023-03-14T14:04:15;2.33;;;2.23;;
15899;SDS011;8048;50.644;6.184;2023-03-14T14:06:52;1.93;;;1.83;;
15899;SDS011;8048;50.644;6.184;2023-03-14T14:09:21;2.83;;;2.73;;
15899;SDS011;8048;50.644;6.184;2023-03-14T14:11:56;4.47;;;4.17;;
15899;SDS011;8048;50.644;6.184;2023-03-14T14:14:27;7.27;;;6.57;;
15899;SDS011;8048;50.644;6.184;2023-03-14T14:17:08;7.67;;;4.67;;
15899;SDS011;8048;50.644;6.184;2023-03-14T14:19:36;2.27;;;2.07;;
15899;SDS011;8048;50.644;6.184;2023-03-14T14:22:03;1.50;;;1.50;;
15899;SDS011;8048;50.644;6.184;2023-03-14T14:24:30;4.27;;;3.20;;
15899;SDS011;8048;50.644;6.184;2023-03-14T14:27:16;11.77;;;10.23;;
15899;SDS011;8048;50.644;6.184;2023-03-14T14:29:44;22.73;;;16.93;;
15899;SDS011;8048;50.644;6.184;2023-03-14T14:32:21;16.30;;;12.50;;
15899;SDS011;8048;50.644;6.184;2023-03-14T14:34:56;5.03;;;4.67;;
15899;SDS011;8048;50.644;6.184;2023-03-14T14:37:31;3.00;;;2.80;;
15899;SDS011;8048;50.644;6.184;2023-03-14T14:39:58;3.87;;;3.57;;
15899;SDS011;8048;50.644;6.184;2023-03-14T14:42:27;2.20;;;2.10;;
15899;SDS011;8048;50.644;6.184;2023-03-14T14:44:55;1.40;;;1.40;;
15899;SDS011;8048;50.644;6.184;2023-03-14T14:47:23;1.67;;;1.67;;
15899;SDS011;8048;50.644;6.184;2023-03-14T14:49:51;2.00;;;1.80;;
15899;SDS011;8048;50.644;6.184;2023-03-14T14:52:19;3.30;;;2.10;;
15899;SDS011;8048;50.644;6.184;2023-03-14T14:57:20;3.80;;;1.87;;
15899;SDS011;8048;50.644;6.184;2023-03-14T14:59:48;1.90;;;1.70;;
15899;SDS011;8048;50.644;6.184;2023-03-14T15:05:15;1.83;;;1.73;;
15899;SDS011;8048;50.644;6.184;2023-03-14T15:08:00;4.43;;;1.63;;
15899;SDS011;8048;50.644;6.184;2023-03-14T15:10:26;5.40;;;1.80;;
15899;SDS011;8048;50.644;6.184;2023-03-14T15:12:52;1.80;;;1.50;;
15899;SDS011;8048;50.644;6.184;2023-03-14T15:15:18;1.00;;;1.00;;
15899;SDS011;8048;50.644;6.184;2023-03-14T15:17:44;4.83;;;1.93;;
15899;SDS011;8048;50.644;6.184;2023-03-14T15:20:10;2.13;;;1.57;;
15899;SDS011;8048;50.644;6.184;2023-03-14T15:22:38;3.93;;;2.43;;
15899;SDS011;8048;50.644;6.184;2023-03-14T15:25:05;1.60;;;1.50;;
15899;SDS011;8048;50.644;6.184;2023-03-14T15:27:31;3.30;;;3.10;;
15899;SDS011;8048;50.644;6.184;2023-03-14T15:29:57;1.93;;;1.83;;
15899;SDS011;8048;50.644;6.184;2023-03-14T15:32:24;6.10;;;2.70;;
15899;SDS011;8048;50.644;6.184;2023-03-14T15:34:52;2.27;;;1.60;;
15899;SDS011;8048;50.644;6.184;2023-03-14T15:37:19;3.43;;;2.30;;
15899;SDS011;8048;50.644;6.184;2023-03-14T15:39:44;2.80;;;1.80;;
15899;SDS011;8048;50.644;6.184;2023-03-14T15:42:10;1.90;;;1.80;;
15899;SDS011;8048;50.644;6.184;2023-03-14T15:44:37;3.77;;;2.10;;
15899;SDS011;8048;50.644;6.184;2023-03-14T15:47:04;4.03;;;1.97;;
15899;SDS011;8048;50.644;6.184;2023-03-14T15:49:30;1.90;;;1.80;;
15899;SDS011;8048;50.644;6.184;2023-03-14T15:51:56;2.30;;;2.10;;
15899;SDS011;8048;50.644;6.184;2023-03-14T15:54:22;2.10;;;1.80;;
15899;SDS011;8048;50.644;6.184;2023-03-14T15:56:47;6.70;;;1.80;;
15899;SDS011;8048;50.644;6.184;2023-03-14T15:59:13;4.63;;;1.90;;
15899;SDS011;8048;50.644;6.184;2023-03-14T16:01:38;1.80;;;1.70;;
15899;SDS011;8048;50.644;6.184;2023-03-14T16:04:04;1.53;;;1.43;;
15899;SDS011;8048;50.644;6.184;2023-03-14T16:06:29;1.93;;;1.83;;
15899;SDS011;8048;50.644;6.184;2023-03-14T16:09:00;3.10;;;1.80;;
15899;SDS011;8048;50.644;6.184;2023-03-14T16:11:25;4.20;;;1.80;;
15899;SDS011;8048;50.644;6.184;2023-03-14T16:13:51;1.67;;;1.57;;
15899;SDS011;8048;50.644;6.184;2023-03-14T16:16:17;2.07;;;1.97;;
15899;SDS011;8048;50.644;6.184;2023-03-14T16:18:42;4.13;;;2.17;;
15899;SDS011;8048;50.644;6.184;2023-03-14T16:21:12;2.00;;;1.90;;
15899;SDS011;8048;50.644;6.184;2023-03-14T16:23:42;1.90;;;1.80;;
15899;SDS011;8048;50.644;6.184;2023-03-14T16:26:09;1.53;;;1.53;;
15899;SDS011;8048;50.644;6.184;2023-03-14T16:28:45;1.87;;;1.70;;
15899;SDS011;8048;50.644;6.184;2023-03-14T16:31:12;2.53;;;2.33;;